Time;durP1;ratioP1;P1;durP2;ratioP2;P2;SDS_P1;SDS_P2;PMS_P1;PMS_P2;Temp;Humidity;BMP_temperature;BMP_pressure;BME280_temperature;BME280_humidity;BME280_pressure;Samples;Min_cycle;Max_cycle;Signal;HPM_P1;HPM_P2
2022/06/13 00:00:57;;;;;;;12.55;4.22;;;;;;;13.33;69.32;101962.19;5048291;28;20045;-78
2022/06/13 00:03:24;;;;;;;12.35;4.95;;;;;;;13.33;69.43;101967.47;5043435;28;20085;-77
2022/06/13 00:05:52;;;;;;;12.88;5.15;;;;;;;13.32;70.00;101965.75;5043389;28;20051;-77
2022/06/13 00:08:19;;;;;;;12.80;5.47;;;;;;;13.29;69.54;101955.22;5041096;28;20053;-79
2022/06/13 00:10:47;;;;;;;12.73;5.47;;;;;;;13.28;69.46;101953.47;5042147;28;20042;-78
2022/06/13 00:13:14;;;;;;;13.50;5.22;;;;;;;13.26;69.89;101952.66;5046314;28;20591;-79
2022/06/13 00:15:41;;;;;;;11.27;5.20;;;;;;;13.26;69.61;101944.72;5044168;28;20045;-78
2022/06/13 00:18:11;;;;;;;15.30;5.65;;;;;;;13.24;69.65;101943.88;5047965;28;20037;-78
2022/06/13 00:20:38;;;;;;;14.32;5.93;;;;;;;13.25;69.96;101948.25;5050761;28;20152;-79
2022/06/13 00:23:07;;;;;;;11.70;5.45;;;;;;;13.24;69.71;101943.88;5050037;28;20080;-79
2022/06/13 00:25:34;;;;;;;11.90;5.63;;;;;;;13.25;69.93;101950.03;5043082;28;20508;-78
2022/06/13 00:28:01;;;;;;;14.68;5.95;;;;;;;13.21;70.28;101938.63;5037597;28;20037;-78
2022/06/13 00:30:29;;;;;;;10.20;5.20;;;;;;;13.18;69.96;101936.94;5037167;28;20042;-78
2022/06/13 00:32:56;;;;;;;10.27;5.20;;;;;;;13.14;70.22;101934.41;5042310;28;20053;-76
2022/06/13 00:35:23;;;;;;;9.73;5.40;;;;;;;13.12;70.06;101941.50;5038952;28;20045;-76
2022/06/13 00:37:50;;;;;;;15.68;5.68;;;;;;;13.07;70.17;101936.31;5047036;28;20038;-77
2022/06/13 00:40:18;;;;;;;15.48;5.55;;;;;;;13.06;69.88;101939.88;5049407;28;20038;-78
2022/06/13 00:42:46;;;;;;;12.10;5.93;;;;;;;13.03;70.51;101934.63;5042941;28;20038;-77
2022/06/13 00:45:25;;;;;;;12.52;5.75;;;;;;;13.01;70.79;101941.78;5040972;28;20048;-78
2022/06/13 00:47:55;;;;;;;15.10;5.90;;;;;;;12.97;70.75;101937.44;5048422;28;20594;-77
2022/06/13 00:50:29;;;;;;;11.73;6.03;;;;;;;12.94;71.16;101935.75;5037802;28;20041;-76
2022/06/13 00:53:40;;;;;;;13.10;5.97;;;;;;;12.91;71.15;101925.22;5040309;28;20042;-78
2022/06/13 00:56:16;;;;;;;16.15;6.43;;;;;;;12.95;71.74;101931.31;5037288;28;20144;-77
2022/06/13 00:58:54;;;;;;;12.02;6.68;;;;;;;12.96;71.42;101927.75;5045366;28;20046;-77
2022/06/13 01:01:22;;;;;;;13.75;5.53;;;;;;;12.96;71.11;101927.75;5038854;28;20119;-77
2022/06/13 01:03:51;;;;;;;11.43;5.90;;;;;;;12.90;71.02;101918.19;5040123;28;20045;-77
2022/06/13 01:06:20;;;;;;;14.93;5.72;;;;;;;12.87;70.62;101915.63;5037680;28;20049;-77
2022/06/13 01:08:48;;;;;;;13.85;6.10;;;;;;;12.82;70.99;101909.56;5037755;28;20045;-77
2022/06/13 01:11:22;;;;;;;13.05;5.57;;;;;;;12.76;71.27;101902.63;5035021;28;20045;-78
2022/06/13 01:14:26;;;;;;;16.25;6.10;;;;;;;12.70;71.33;101906.28;5040865;28;20058;-79
2022/06/13 01:17:21;;;;;;;14.48;5.38;;;;;;;12.69;71.85;101912.47;5038199;28;20499;-79
2022/06/13 01:20:07;;;;;;;;;;;;;;;12.69;71.86;101909.81;5065539;28;20029;-79
2022/06/13 01:23:26;;;;;;;11.30;4.65;;;;;;;12.72;72.23;101907.13;5060963;28;19910;-80
2022/06/13 01:26:52;;;;;;;12.80;4.90;;;;;;;12.75;72.06;101906.16;5064462;28;20037;-76
2022/06/13 01:29:43;;;;;;;;;;;;;;;12.76;71.74;101905.25;5040899;28;20042;-78
2022/06/13 01:32:25;;;;;;;11.23;5.70;;;;;;;12.81;71.89;101903.41;5046417;28;19947;-79
2022/06/13 01:35:17;;;;;;;13.10;5.63;;;;;;;12.89;73.01;101912.03;5035463;28;20068;-78
2022/06/13 01:38:07;;;;;;;9.02;5.05;;;;;;;12.96;73.47;101914.53;5043247;28;20033;-75
2022/06/13 01:41:01;;;;;;;13.65;5.57;;;;;;;13.01;73.22;101902.91;5039119;28;20500;-75
2022/06/13 01:43:58;;;;;;;11.57;5.13;;;;;;;13.04;72.95;101891.38;5036290;28;20049;-75
2022/06/13 01:46:43;;;;;;;11.18;5.32;;;;;;;13.05;73.02;101899.31;5038463;28;20037;-75
2022/06/13 01:49:34;;;;;;;13.63;5.28;;;;;;;13.08;73.07;101908.06;5046241;28;20809;-74
2022/06/13 01:52:27;;;;;;;12.35;5.78;;;;;;;13.09;73.10;101909.81;5037291;28;20038;-75
2022/06/13 01:55:20;;;;;;;12.48;5.13;;;;;;;13.09;72.95;101902.75;5044688;28;20050;-75
2022/06/13 01:58:13;;;;;;;11.23;5.57;;;;;;;13.13;73.11;101904.41;5031251;28;20038;-74
2022/06/13 02:00:51;;;;;;;11.43;5.82;;;;;;;13.17;73.35;101900.78;5035508;28;20100;-75
2022/06/13 02:03:32;;;;;;;16.05;6.97;;;;;;;13.22;73.30;101903.31;5033263;28;20117;-74
2022/06/13 02:06:12;;;;;;;13.68;6.60;;;;;;;13.26;73.46;101898.81;5034800;28;20818;-76
2022/06/13 02:08:56;;;;;;;13.48;7.35;;;;;;;13.29;73.82;101899.59;5040606;28;20055;-76
2022/06/13 02:11:32;;;;;;;15.90;7.28;;;;;;;13.31;73.78;101894.28;5045759;28;20041;-77
2022/06/13 02:14:40;;;;;;;13.10;6.70;;;;;;;13.34;73.84;101897.72;5042446;28;20046;-77
2022/06/13 02:17:13;;;;;;;17.35;7.07;;;;;;;13.37;73.81;101915.31;5036583;28;20037;-80
2022/06/13 02:20:05;;;;;;;18.70;7.53;;;;;;;13.38;73.67;101903.81;5049202;28;20049;-79
2022/06/13 02:22:49;;;;;;;13.35;5.90;;;;;;;13.41;73.78;101909.06;5040670;28;20536;-79
2022/06/13 02:25:55;;;;;;;10.82;6.45;;;;;;;13.40;73.81;101912.63;5040698;28;20050;-80
2022/06/13 02:28:32;;;;;;;14.00;6.60;;;;;;;13.43;73.76;101914.31;5035289;28;20042;-79
2022/06/13 02:31:16;;;;;;;15.80;7.15;;;;;;;13.46;73.64;101927.50;5041114;28;20836;-81
2022/06/13 02:33:57;;;;;;;12.18;6.60;;;;;;;13.47;74.12;101916.84;5037646;28;20925;-78
2022/06/13 02:36:51;;;;;;;16.42;7.20;;;;;;;13.55;73.85;101915.78;5042924;28;20129;-77
2022/06/13 02:39:35;;;;;;;12.90;6.80;;;;;;;13.58;73.74;101900.66;5047737;28;20045;-78
2022/06/13 02:42:27;;;;;;;11.55;7.35;;;;;;;13.61;73.69;101891.78;5040415;28;20044;-76
2022/06/13 02:45:03;;;;;;;14.65;7.03;;;;;;;13.60;73.94;101890.91;5037604;28;21231;-76
2022/06/13 02:47:43;;;;;;;16.08;6.88;;;;;;;13.58;73.61;101891.84;5038235;28;20060;-76
2022/06/13 02:50:29;;;;;;;16.63;7.22;;;;;;;13.56;73.73;101893.69;5038060;28;20048;-77
2022/06/13 02:53:33;;;;;;;12.85;7.15;;;;;;;13.57;73.72;101898.06;5039581;28;20033;-76
2022/06/13 02:56:09;;;;;;;12.90;7.32;;;;;;;13.54;74.09;101896.38;5047567;28;20045;-76
2022/06/13 02:59:18;;;;;;;13.15;6.65;;;;;;;13.51;74.19;101891.16;5032703;28;20405;-77
2022/06/13 03:01:51;;;;;;;11.82;6.57;;;;;;;13.46;74.35;101882.47;5034810;28;20069;-76
2022/06/13 03:04:35;;;;;;;15.87;7.57;;;;;;;13.42;74.61;101880.78;5047797;28;20096;-77
2022/06/13 03:07:15;;;;;;;16.05;7.45;;;;;;;13.40;74.27;101875.53;5033588;28;20100;-77
2022/06/13 03:09:55;;;;;;;15.65;7.13;;;;;;;13.39;73.94;101875.53;5037122;28;20113;-78
2022/06/13 03:12:34;;;;;;;10.40;6.78;;;;;;;13.37;74.13;101888.81;5039834;28;20046;-78
2022/06/13 03:15:11;;;;;;;15.80;7.22;;;;;;;13.39;74.20;101891.41;5043606;28;20060;-77
2022/06/13 03:17:50;;;;;;;15.57;7.10;;;;;;;13.40;74.17;101882.59;5039202;28;20033;-77
2022/06/13 03:20:32;;;;;;;12.60;6.70;;;;;;;13.42;74.84;101897.56;5031623;28;20034;-77
2022/06/13 03:23:19;;;;;;;12.60;6.50;;;;;;;13.42;74.91;101886.09;5034796;28;20046;-77
2022/06/13 03:25:58;;;;;;;15.25;7.60;;;;;;;13.38;74.83;101884.41;5032591;28;20049;-79
2022/06/13 03:28:44;;;;;;;17.17;7.55;;;;;;;13.37;74.72;101888.81;5042800;28;20053;-80
2022/06/13 03:31:28;;;;;;;14.73;8.10;;;;;;;13.34;74.73;101887.13;5035025;28;20149;-80
2022/06/13 03:34:06;;;;;;;18.02;7.93;;;;;;;13.28;74.74;101884.63;5041495;28;20129;-79
2022/06/13 03:36:43;;;;;;;13.50;7.22;;;;;;;13.23;75.07;101886.53;5041571;28;20151;-75
2022/06/13 03:39:38;;;;;;;19.95;8.15;;;;;;;13.20;74.93;101898.06;5038085;28;20109;-76
2022/06/13 03:42:21;;;;;;;;;;;;;;;13.13;74.98;101898.25;5049443;28;20043;-76
2022/06/13 03:44:57;;;;;;;16.50;7.20;;;;;;;13.13;75.30;101904.41;5033948;28;19925;-75
2022/06/13 03:47:33;;;;;;;16.52;7.63;;;;;;;13.17;75.50;101913.16;5035446;28;20042;-75
2022/06/13 03:50:34;;;;;;;12.32;7.90;;;;;;;13.22;75.17;101902.47;5038371;28;20065;-75
2022/06/13 03:53:15;;;;;;;14.27;7.25;;;;;;;13.25;74.92;101915.59;5034490;28;20045;-78
2022/06/13 03:56:06;;;;;;;15.02;7.13;;;;;;;13.29;75.29;101912.84;5045208;28;20037;-77
2022/06/13 03:58:55;;;;;;;15.98;6.93;;;;;;;13.36;75.27;101917.09;5040178;28;20046;-77
2022/06/13 04:01:51;;;;;;;16.98;6.60;;;;;;;13.41;75.08;101909.06;5050368;28;20041;-77
2022/06/13 04:04:25;;;;;;;14.52;7.05;;;;;;;13.45;74.88;101913.38;5032288;28;20062;-76
2022/06/13 04:06:56;;;;;;;15.48;6.43;;;;;;;13.51;74.74;101918.53;5038065;28;20048;-76
2022/06/13 04:10:06;;;;;;;15.55;6.97;;;;;;;13.57;74.35;101913.97;5032440;28;20070;-76
2022/06/13 04:13:14;;;;;;;15.15;6.80;;;;;;;13.62;74.40;101914.72;5032152;28;20532;-77
2022/06/13 04:16:17;;;;;;;15.38;6.68;;;;;;;13.67;74.26;101920.75;5044722;28;20049;-76
2022/06/13 04:19:05;;;;;;;12.73;6.88;;;;;;;13.74;73.99;101916.19;5033665;28;20117;-77
2022/06/13 04:21:57;;;;;;;13.57;6.43;;;;;;;13.80;73.91;101921.31;5042896;28;20034;-76
2022/06/13 04:24:56;;;;;;;14.43;6.30;;;;;;;13.86;73.67;101918.50;5042002;28;20041;-78
2022/06/13 04:27:50;;;;;;;27.33;7.70;;;;;;;13.94;73.53;101924.47;5042050;28;20050;-76
2022/06/13 04:30:24;;;;;;;12.35;7.03;;;;;;;13.95;73.61;101926.22;5047069;28;20046;-77
2022/06/13 04:33:04;;;;;;;22.17;7.60;;;;;;;13.93;73.86;101927.16;5042490;28;20499;-78
2022/06/13 04:35:35;;;;;;;19.73;7.18;;;;;;;13.96;74.13;101932.38;5043247;28;20555;-79
2022/06/13 04:38:08;;;;;;;21.85;7.40;;;;;;;13.96;73.79;101935.00;5046543;28;20048;-79
2022/06/13 04:40:53;;;;;;;16.58;7.22;;;;;;;13.94;73.81;101934.19;5050829;28;20515;-76
2022/06/13 04:43:27;;;;;;;22.83;8.52;;;;;;;13.93;74.06;101943.06;5045619;28;20050;-77
2022/06/13 04:46:11;;;;;;;15.85;6.95;;;;;;;13.93;74.26;101946.56;5039837;28;20034;-76
2022/06/13 04:48:42;;;;;;;14.98;7.72;;;;;;;13.96;74.12;101941.22;5037642;28;20962;-76
2022/06/13 04:51:16;;;;;;;26.95;8.00;;;;;;;14.02;74.41;101944.59;5042116;28;20052;-75
2022/06/13 04:54:46;;;;;;;16.92;8.40;;;;;;;14.06;74.51;101944.47;5037838;28;20046;-76
2022/06/13 04:57:17;;;;;;;18.63;8.27;;;;;;;14.09;74.26;101943.53;5040852;28;20046;-76
2022/06/13 04:59:46;;;;;;;23.30;8.35;;;;;;;14.15;74.25;101948.66;5038551;28;20034;-77
2022/06/13 05:02:22;;;;;;;27.17;9.30;;;;;;;14.24;74.05;101936.94;5035437;28;20042;-76
2022/06/13 05:04:50;;;;;;;24.38;9.35;;;;;;;14.37;74.05;101948.91;5036221;28;20076;-77
2022/06/13 05:07:22;;;;;;;18.35;8.73;;;;;;;14.42;73.99;101939.03;5037706;28;20046;-75
2022/06/13 05:10:01;;;;;;;30.13;9.70;;;;;;;14.48;73.82;101942.41;5034682;28;20041;-76
2022/06/13 05:12:39;;;;;;;16.27;8.75;;;;;;;14.53;73.46;101953.78;5033876;28;20049;-76
2022/06/13 05:15:36;;;;;;;19.85;8.52;;;;;;;14.55;73.66;101952.81;5039563;28;20061;-76
2022/06/13 05:18:35;;;;;;;23.48;9.10;;;;;;;14.61;73.97;101951.78;5038072;28;20104;-76
2022/06/13 05:21:33;;;;;;;13.88;8.20;;;;;;;14.62;73.69;101953.50;5050238;28;20096;-76
2022/06/13 05:24:40;;;;;;;19.60;8.60;;;;;;;14.62;73.89;101952.63;5046041;28;20156;-76
2022/06/13 05:27:08;;;;;;;36.63;8.98;;;;;;;14.65;73.55;101950.75;5044124;28;20045;-75
2022/06/13 05:29:35;;;;;;;18.70;9.30;;;;;;;14.73;73.67;101955.84;5042413;28;20478;-76
2022/06/13 05:32:08;;;;;;;18.65;7.85;;;;;;;14.82;73.51;101955.59;5048360;28;20535;-75
2022/06/13 05:34:40;;;;;;;34.97;9.55;;;;;;;14.85;73.22;101968.78;5042446;28;20040;-76
2022/06/13 05:37:11;;;;;;;27.25;9.63;;;;;;;14.84;72.95;101964.38;5036122;28;20042;-75
2022/06/13 05:39:40;;;;;;;25.15;9.27;;;;;;;14.87;72.85;101966.94;5037660;28;20029;-73
2022/06/13 05:42:12;;;;;;;18.10;8.98;;;;;;;14.96;72.72;101956.94;5041907;28;20255;-75
2022/06/13 05:44:40;;;;;;;18.73;8.95;;;;;;;15.07;72.64;101963.66;5048206;28;20888;-76
2022/06/13 05:47:21;;;;;;;20.17;8.90;;;;;;;16.87;68.67;101960.09;5050614;28;20048;-76
2022/06/13 05:49:49;;;;;;;19.63;8.32;;;;;;;19.29;61.74;101956.69;5046719;28;20053;-75
2022/06/13 05:52:16;;;;;;;13.68;8.30;;;;;;;20.94;56.75;101958.78;5043003;28;20040;-75
2022/06/13 05:54:43;;;;;;;24.27;9.30;;;;;;;22.28;53.51;101959.88;5044891;28;20046;-77
2022/06/13 05:57:10;;;;;;;25.75;7.60;;;;;;;23.45;50.19;101964.09;5045265;28;20065;-76
2022/06/13 05:59:38;;;;;;;17.58;6.97;;;;;;;24.54;47.95;101960.13;5051457;28;20108;-76
2022/06/13 06:02:10;;;;;;;15.02;7.15;;;;;;;25.41;44.77;101967.34;5045382;28;20064;-77
2022/06/13 06:04:37;;;;;;;14.60;6.78;;;;;;;25.86;43.71;101961.22;5048264;28;20084;-74
2022/06/13 06:07:04;;;;;;;17.08;6.97;;;;;;;24.90;44.41;101965.69;5046182;28;20072;-76
2022/06/13 06:09:32;;;;;;;15.10;6.93;;;;;;;25.53;43.79;101966.41;5036751;28;20048;-77
2022/06/13 06:11:59;;;;;;;17.92;7.25;;;;;;;25.99;42.74;101970.06;5045900;28;20042;-76
2022/06/13 06:14:26;;;;;;;18.15;6.75;;;;;;;25.42;43.36;101975.31;5045094;28;20045;-76
2022/06/13 06:16:53;;;;;;;14.40;6.15;;;;;;;25.66;41.87;101982.50;5038209;28;20049;-76
2022/06/13 06:19:22;;;;;;;16.05;6.70;;;;;;;24.96;42.88;101982.28;5033693;28;20052;-75
2022/06/13 06:21:49;;;;;;;28.77;7.07;;;;;;;23.73;46.09;101992.66;5033448;28;20038;-76
2022/06/13 06:24:17;;;;;;;21.02;6.45;;;;;;;22.20;49.51;101994.41;5032555;28;20037;-75
2022/06/13 06:26:46;;;;;;;30.85;6.43;;;;;;;21.25;52.38;101994.56;5041010;28;20049;-77
2022/06/13 06:29:14;;;;;;;14.68;6.45;;;;;;;20.72;53.74;101995.72;5033729;28;20064;-75
2022/06/13 06:31:41;;;;;;;18.77;6.82;;;;;;;20.36;54.96;102000.31;5036769;28;20042;-76
2022/06/13 06:34:09;;;;;;;31.33;8.48;;;;;;;20.04;56.21;102005.56;5031875;28;20077;-76
2022/06/13 06:36:36;;;;;;;17.85;7.55;;;;;;;19.89;57.08;102009.03;5036315;28;20041;-76
2022/06/13 06:39:03;;;;;;;17.20;6.90;;;;;;;19.73;56.26;102015.13;5036438;28;20046;-76
2022/06/13 06:41:30;;;;;;;17.65;6.85;;;;;;;19.57;56.97;102009.69;5051318;28;20567;-76
2022/06/13 06:43:58;;;;;;;23.15;6.40;;;;;;;19.32;57.43;102013.59;5048931;28;20563;-77
2022/06/13 06:46:26;;;;;;;45.03;8.13;;;;;;;18.99;58.03;102024.06;5051121;28;20407;-76
2022/06/13 06:48:54;;;;;;;22.55;6.10;;;;;;;18.66;58.91;102020.19;5034444;28;20149;-76
2022/06/13 06:51:22;;;;;;;20.58;6.05;;;;;;;18.41;58.80;102015.09;5040191;28;20044;-76
2022/06/13 07:02:06;;;;;;;10.63;4.55;;;;;;;18.03;59.03;102028.34;5035128;28;20053;-76
2022/06/13 07:04:33;;;;;;;25.77;4.63;;;;;;;18.12;58.37;102035.94;5043219;28;20508;-75
2022/06/13 07:07:00;;;;;;;15.52;4.32;;;;;;;18.13;57.85;102033.19;5036243;28;20049;-74
2022/06/13 07:09:28;;;;;;;13.93;4.35;;;;;;;18.19;57.84;102041.88;5040289;28;20072;-76
2022/06/13 07:11:56;;;;;;;11.90;4.00;;;;;;;18.43;58.03;102035.44;5038581;28;20124;-75
2022/06/13 07:14:30;;;;;;;11.75;4.20;;;;;;;18.73;56.90;102031.47;5050675;28;20132;-76
2022/06/13 07:17:01;;;;;;;12.80;4.40;;;;;;;18.77;57.07;102033.06;5048389;28;20050;-75
2022/06/13 07:19:29;;;;;;;17.60;5.40;;;;;;;18.60;57.05;102031.16;5042773;28;20099;-76
2022/06/13 07:21:57;;;;;;;16.70;4.55;;;;;;;18.51;56.64;102035.09;5035078;28;20523;-75
2022/06/13 07:24:25;;;;;;;13.15;4.13;;;;;;;18.50;56.27;102037.84;5035896;28;20050;-76
2022/06/13 07:26:55;;;;;;;13.10;4.07;;;;;;;18.45;56.23;102038.06;5055345;28;20101;-75
2022/06/13 07:29:22;;;;;;;20.77;3.95;;;;;;;18.28;55.25;102042.34;5071297;28;20120;-75
2022/06/13 07:31:55;;;;;;;9.57;3.38;;;;;;;18.27;54.86;102040.59;5071597;28;20045;-74
2022/06/13 07:34:28;;;;;;;17.93;3.43;;;;;;;18.26;53.88;102040.69;5066680;28;20080;-75
2022/06/13 07:37:00;;;;;;;13.50;3.58;;;;;;;18.36;54.05;102039.34;5042463;28;20247;-74
2022/06/13 07:39:27;;;;;;;25.52;4.35;;;;;;;18.58;54.52;102033.03;5048353;28;20038;-75
2022/06/13 07:41:55;;;;;;;25.50;4.35;;;;;;;18.72;54.11;102037.75;5042517;28;20052;-74
2022/06/13 07:44:36;;;;;;;11.65;2.70;;;;;;;18.74;52.29;102047.41;5046306;28;20089;-74
2022/06/13 07:47:05;;;;;;;9.27;2.30;;;;;;;18.55;52.56;102055.41;5040455;28;20796;-75
2022/06/13 07:49:32;;;;;;;8.73;2.05;;;;;;;18.56;52.13;102057.16;5037439;28;20037;-74
2022/06/13 07:52:00;;;;;;;9.40;2.78;;;;;;;18.59;51.53;102058.81;5042240;28;20133;-75
2022/06/13 07:54:27;;;;;;;8.20;2.33;;;;;;;18.50;51.12;102048.53;5038415;28;20034;-74
2022/06/13 07:56:54;;;;;;;6.13;2.20;;;;;;;18.52;51.52;102058.22;5040336;28;20053;-73
2022/06/13 07:59:29;;;;;;;7.30;2.00;;;;;;;18.57;50.71;102053.50;5049596;28;20049;-74
2022/06/13 08:01:58;;;;;;;17.45;2.60;;;;;;;18.62;51.13;102055.97;5043752;28;20056;-74
2022/06/13 08:04:25;;;;;;;12.77;2.25;;;;;;;18.69;51.42;102053.91;5045151;28;20503;-73
2022/06/13 08:07:15;;;;;;;8.05;1.40;;;;;;;18.77;49.43;102059.78;5043962;28;20042;-72
2022/06/13 08:09:42;;;;;;;6.70;1.70;;;;;;;18.82;48.95;102059.56;5049143;28;20096;-73
2022/06/13 08:12:14;;;;;;;9.07;2.20;;;;;;;18.86;49.02;102066.50;5065805;28;20159;-72
2022/06/13 08:15:06;;;;;;;6.70;1.70;;;;;;;18.85;48.12;102067.41;5033969;28;20145;-73
2022/06/13 08:17:33;;;;;;;6.57;1.70;;;;;;;18.88;48.76;102067.28;5035198;28;20049;-73
2022/06/13 08:20:01;;;;;;;9.05;1.83;;;;;;;19.01;48.41;102079.19;5047919;28;20129;-75
2022/06/13 08:22:28;;;;;;;12.85;2.08;;;;;;;18.95;49.53;102082.13;5045008;28;20057;-73
2022/06/13 08:24:55;;;;;;;10.85;1.90;;;;;;;19.01;48.92;102087.22;5045822;28;20488;-75
2022/06/13 08:27:26;;;;;;;14.90;2.03;;;;;;;19.20;48.57;102089.00;5034869;28;20116;-75
2022/06/13 08:29:56;;;;;;;8.70;1.73;;;;;;;19.19;47.36;102082.78;5044532;28;20103;-75
2022/06/13 08:32:24;;;;;;;8.85;1.95;;;;;;;19.35;47.72;102079.41;5037585;28;20049;-76
2022/06/13 08:34:51;;;;;;;8.02;1.55;;;;;;;19.36;48.21;102081.13;5055857;28;20041;-75
2022/06/13 08:37:18;;;;;;;11.98;1.92;;;;;;;19.59;47.84;102087.16;5044096;28;20048;-74
2022/06/13 08:39:45;;;;;;;4.47;1.50;;;;;;;19.90;47.45;102085.66;5042582;28;20052;-74
2022/06/13 08:42:31;;;;;;;12.20;2.45;;;;;;;19.99;45.58;102086.09;5042646;28;20821;-73
2022/06/13 08:45:12;;;;;;;5.88;1.70;;;;;;;20.09;45.79;102091.84;5040960;28;20044;-74
2022/06/13 08:47:49;;;;;;;6.45;1.30;;;;;;;19.88;46.03;102098.28;5041815;28;20080;-75
2022/06/13 08:50:28;;;;;;;6.57;1.40;;;;;;;19.73;46.18;102100.72;5034073;28;20848;-72
2022/06/13 08:53:15;;;;;;;15.38;1.90;;;;;;;19.60;47.60;102108.50;5050738;28;20400;-74
2022/06/13 08:55:50;;;;;;;6.05;1.80;;;;;;;19.54;47.43;102098.97;5054477;28;20124;-74
2022/06/13 08:58:29;;;;;;;10.93;1.50;;;;;;;19.49;47.17;102092.94;5040713;28;20048;-75
2022/06/13 09:01:09;;;;;;;5.82;1.38;;;;;;;19.31;47.29;102109.88;5035954;28;20048;-76
2022/06/13 09:03:57;;;;;;;2.25;1.00;;;;;;;19.18;46.35;102104.25;5034092;28;20041;-76
2022/06/13 09:06:40;;;;;;;4.72;1.20;;;;;;;19.26;46.03;102109.25;5041876;28;20516;-74
2022/06/13 09:09:15;;;;;;;5.90;1.63;;;;;;;19.44;47.09;102118.19;5049466;28;20033;-75
2022/06/13 09:12:13;;;;;;;7.15;1.90;;;;;;;19.77;46.76;102104.13;5042888;28;20048;-74
2022/06/13 09:14:54;;;;;;;33.13;2.97;;;;;;;19.72;47.91;102112.38;5033901;28;20065;-74
2022/06/13 09:17:41;;;;;;;10.80;1.35;;;;;;;19.76;46.65;102108.63;5052659;28;20029;-73
2022/06/13 09:20:26;;;;;;;14.70;1.50;;;;;;;19.93;46.03;102114.97;5045840;28;20044;-73
2022/06/13 09:23:15;;;;;;;3.80;1.10;;;;;;;20.05;44.48;102118.81;5050353;28;20503;-73
2022/06/13 09:26:03;;;;;;;7.43;3.35;;;;;;;20.04;44.55;102112.63;5044572;28;20099;-74
2022/06/13 09:28:45;;;;;;;20.40;1.48;;;;;;;19.98;42.92;102118.28;5048017;28;20045;-73
2022/06/13 09:31:33;;;;;;;1.85;0.60;;;;;;;19.92;41.30;102121.25;5041481;28;20590;-73
2022/06/13 09:34:12;;;;;;;8.30;1.05;;;;;;;19.85;43.74;102124.25;5037055;28;20538;-73
2022/06/13 09:36:52;;;;;;;4.82;0.90;;;;;;;19.82;45.30;102115.47;5050687;28;20120;-74
2022/06/13 09:39:19;;;;;;;14.82;1.25;;;;;;;19.88;42.69;102125.03;5049655;28;20077;-74
2022/06/13 09:42:29;;;;;;;3.42;0.68;;;;;;;19.84;43.22;102129.66;5049429;28;20037;-73
2022/06/13 09:45:20;;;;;;;7.00;0.73;;;;;;;19.96;43.58;102131.72;5036190;28;20062;-73
2022/06/13 09:48:15;;;;;;;11.52;1.23;;;;;;;20.24;42.39;102140.19;5046799;28;20120;-75
2022/06/13 09:50:53;;;;;;;;;;;;;;;20.28;41.17;102137.28;5048764;28;20067;-74
2022/06/13 09:53:30;;;;;;;4.43;0.73;;;;;;;20.31;41.35;102144.28;5036355;28;19925;-75
2022/06/13 09:56:08;;;;;;;10.60;1.00;;;;;;;20.27;41.91;102130.19;5044453;28;20053;-76
2022/06/13 09:59:09;;;;;;;10.52;0.90;;;;;;;20.37;41.53;102127.03;5042480;28;20491;-74
2022/06/13 10:01:47;;;;;;;9.40;1.15;;;;;;;20.43;41.43;102142.81;5035871;28;20130;-75
2022/06/13 10:04:36;;;;;;;10.18;1.45;;;;;;;20.56;40.99;102138.53;5045325;28;20045;-75
2022/06/13 10:07:19;;;;;;;10.95;0.88;;;;;;;20.23;41.77;102144.69;5040058;28;20046;-75
2022/06/13 10:10:10;;;;;;;3.42;0.60;;;;;;;20.33;40.92;102145.06;5046567;28;20112;-75
2022/06/13 10:12:57;;;;;;;4.93;0.73;;;;;;;20.33;41.63;102139.72;5040128;28;20038;-75
2022/06/13 10:15:30;;;;;;;7.32;0.90;;;;;;;20.20;42.99;102152.88;5043597;28;20041;-75
2022/06/13 10:18:38;;;;;;;4.32;0.73;;;;;;;20.30;40.40;102142.53;5044186;28;20034;-73
2022/06/13 10:21:32;;;;;;;22.48;1.58;;;;;;;20.51;39.79;102147.75;5034640;28;20159;-73
2022/06/13 10:24:19;;;;;;;3.28;0.68;;;;;;;20.70;39.49;102145.88;5037894;28;20042;-74
2022/06/13 10:27:02;;;;;;;14.02;0.95;;;;;;;20.93;39.60;102141.97;5038280;28;20747;-74
2022/06/13 10:29:48;;;;;;;6.70;1.02;;;;;;;21.17;40.12;102146.94;5041496;28;20044;-73
2022/06/13 10:32:49;;;;;;;15.50;1.42;;;;;;;21.22;39.64;102155.63;5036009;28;20148;-74
2022/06/13 10:35:48;;;;;;;6.25;0.95;;;;;;;20.74;39.90;102154.63;5042882;28;20153;-74
2022/06/13 10:38:41;;;;;;;19.08;1.13;;;;;;;20.59;39.37;102153.59;5049587;28;20103;-74
2022/06/13 10:41:09;;;;;;;3.22;0.70;;;;;;;20.59;40.54;102149.09;5042551;28;20052;-74
2022/06/13 10:43:42;;;;;;;11.88;1.17;;;;;;;20.39;40.94;102165.31;5047720;28;20052;-74
2022/06/13 10:46:14;;;;;;;10.00;0.95;;;;;;;20.08;41.12;102170.41;5036953;28;20049;-74
2022/06/13 10:49:17;;;;;;;3.22;0.50;;;;;;;20.02;41.46;102160.00;5036105;28;20041;-75
2022/06/13 10:51:47;;;;;;;7.95;0.98;;;;;;;20.11;42.28;102172.06;5033751;28;20082;-74
2022/06/13 10:54:22;;;;;;;7.43;0.73;;;;;;;20.22;39.88;102169.72;5039466;28;20088;-74
2022/06/13 10:57:05;;;;;;;3.60;0.70;;;;;;;20.33;39.87;102161.13;5041092;28;20038;-74
2022/06/13 10:59:36;;;;;;;14.95;1.90;;;;;;;20.51;41.51;102178.09;5045111;28;20088;-74
2022/06/13 11:02:19;;;;;;;12.35;1.17;;;;;;;20.56;39.31;102159.94;5035595;28;20558;-73
2022/06/13 11:05:06;;;;;;;10.82;1.10;;;;;;;20.72;40.10;102165.38;5044955;28;20597;-73
2022/06/13 11:07:46;;;;;;;2.58;0.45;;;;;;;20.94;39.75;102162.47;5036978;28;20052;-74
2022/06/13 11:10:36;;;;;;;8.52;0.82;;;;;;;21.21;39.83;102164.59;5039485;28;20077;-73
2022/06/13 11:13:13;;;;;;;4.85;0.85;;;;;;;21.40;37.76;102160.91;5033340;28;20041;-73
2022/06/13 11:24:47;;;;;;;4.93;0.60;;;;;;;21.95;39.64;102167.69;5039201;28;20044;-73
2022/06/13 11:27:40;;;;;;;4.32;0.63;;;;;;;21.78;37.42;102165.97;5033727;28;20038;-74
2022/06/13 11:30:42;;;;;;;39.28;2.85;;;;;;;21.62;37.77;102186.56;5034718;28;20033;-73
2022/06/13 11:33:09;;;;;;;8.90;1.17;;;;;;;21.77;36.63;102171.41;5040955;28;20042;-74
2022/06/13 11:35:39;;;;;;;3.40;1.00;;;;;;;22.01;37.21;102156.59;5036374;28;20077;-73
2022/06/13 11:38:22;;;;;;;14.82;1.45;;;;;;;22.32;36.70;102159.28;5050860;28;20152;-74
2022/06/13 11:41:14;;;;;;;9.00;1.30;;;;;;;22.16;36.72;102164.69;5040242;28;20057;-73
2022/06/13 11:43:44;;;;;;;7.00;1.45;;;;;;;21.62;37.53;102160.59;5042085;28;20042;-75
2022/06/13 11:46:28;;;;;;;7.43;0.90;;;;;;;21.22;38.98;102181.53;5031406;28;20539;-73
2022/06/13 11:49:23;;;;;;;11.73;1.00;;;;;;;20.76;38.83;102177.72;5039680;28;20139;-74
2022/06/13 11:52:11;;;;;;;19.40;1.83;;;;;;;20.42;39.35;102174.06;5042267;28;20495;-73
2022/06/13 11:54:51;;;;;;;6.45;1.05;;;;;;;20.06;41.00;102179.44;5037236;28;20136;-73
2022/06/13 11:57:24;;;;;;;12.52;1.20;;;;;;;19.86;40.92;102175.94;5037999;28;20401;-73
2022/06/13 12:00:06;;;;;;;9.10;0.87;;;;;;;20.16;42.30;102168.22;5042144;28;20045;-72
2022/06/13 12:02:39;;;;;;;14.55;1.40;;;;;;;20.44;40.75;102172.16;5040358;28;20053;-73
2022/06/13 12:05:19;;;;;;;6.88;1.23;;;;;;;20.85;39.29;102162.97;5051063;28;20042;-73
2022/06/13 12:08:22;;;;;;;15.88;1.85;;;;;;;21.30;39.42;102157.88;5037266;28;20041;-73
2022/06/13 12:11:19;;;;;;;8.48;0.80;;;;;;;21.51;36.46;102168.38;5032143;28;20034;-76
2022/06/13 12:13:48;;;;;;;3.63;0.70;;;;;;;21.54;37.75;102163.69;5053965;28;20056;-73
2022/06/13 12:16:30;;;;;;;13.73;1.33;;;;;;;21.62;38.21;102157.91;5037233;28;20041;-72
2022/06/13 12:19:26;;;;;;;5.30;1.20;;;;;;;21.70;38.10;102165.53;5044340;28;20096;-75
2022/06/13 12:22:02;;;;;;;29.30;1.88;;;;;;;22.03;37.23;102154.66;5042401;28;20121;-73
2022/06/13 12:25:05;;;;;;;6.03;0.77;;;;;;;21.53;36.53;102161.09;5030428;28;20072;-72
2022/06/13 12:28:23;;;;;;;8.23;0.98;;;;;;;20.90;37.86;102184.16;5031764;28;20038;-75
2022/06/13 12:31:19;;;;;;;5.15;0.90;;;;;;;20.37;38.94;102194.88;5046502;28;20034;-75
2022/06/13 12:34:19;;;;;;;3.58;0.98;;;;;;;20.41;40.42;102190.22;5047239;28;20037;-75